| time (UTC) | temp C | wind direction | speed KPH | gust KPH | rain 1hr cm | rain 24hr cm | rain mn cm | humidity % | barometer mb |
| 20260906152104 | 24 | 40 | 6.4 | 16.1 | 0.00 | 0.00 | 0.00 | 76 | 1021.1 |
| 20260906151606 | 24 | 108 | 6.4 | 16.1 | 0.00 | 0.00 | 0.00 | 75 | 1021.1 |
| 20260906151105 | 24 | 49 | 6.4 | 14.5 | 0.00 | 0.00 | 0.00 | 77 | 1021.1 |
| 20260906150605 | 24 | 84 | 6.4 | 14.5 | 0.00 | 0.00 | 0.00 | 79 | 1021.1 |
| 20260906145556 | 23 | 68 | 6.4 | 16.1 | 0.00 | 0.00 | 0.00 | 80 | 1020.9 |
| 20260906145056 | 23 | 64 | 6.4 | 14.5 | 0.00 | 0.00 | 0.00 | 83 | 1020.9 |
| 20260906144558 | 23 | 107 | 6.4 | 14.5 | 0.00 | 0.00 | 0.00 | 85 | 1020.9 |
| 20260906144056 | 22 | 118 | 6.4 | 11.3 | 0.00 | 0.00 | 0.00 | 87 | 1020.9 |
| 20260906143557 | 22 | 52 | 6.4 | 11.3 | 0.00 | 0.00 | 0.00 | 88 | 1021.1 |
| 20260906143055 | 22 | 49 | 4.8 | 14.5 | 0.00 | 0.00 | 0.00 | 89 | 1021.1 |
| 20260906142556 | 21 | 80 | 4.8 | 14.5 | 0.00 | 0.00 | 0.00 | 91 | 1021.1 |
| 20260906142056 | 21 | 61 | 4.8 | 14.5 | 0.00 | 0.00 | 0.00 | 93 | 1021.2 |
| 20260906141556 | 21 | 55 | 4.8 | 11.3 | 0.00 | 0.00 | 0.00 | 94 | 1021.3 |
| 20260906141057 | 20 | 72 | 4.8 | 11.3 | 0.00 | 0.00 | 0.00 | 94 | 1021.2 |
| 20260906140557 | 20 | 92 | 4.8 | 9.7 | 0.00 | 0.00 | 0.00 | 94 | 1021.2 |
| 20260906135553 | 20 | 99 | 4.8 | 9.7 | 0.00 | 0.00 | 0.00 | 95 | 1021.3 |
| 20260906135053 | 19 | 64 | 4.8 | 9.7 | 0.00 | 0.00 | 0.00 | 95 | 1021.3 |
| 20260906134554 | 19 | 77 | 4.8 | 9.7 | 0.00 | 0.00 | 0.00 | 95 | 1021.2 |
| 20260906134052 | 19 | 84 | 4.8 | 9.7 | 0.00 | 0.00 | 0.00 | 95 | 1021.3 |
| 20260906133551 | 19 | 60 | 4.8 | 9.7 | 0.00 | 0.00 | 0.00 | 95 | 1021.5 |
| 20260906133052 | 18 | 71 | 4.8 | 11.3 | 0.00 | 0.00 | 0.00 | 95 | 1021.4 |
| 20260906132547 | 18 | 78 | 4.8 | 11.3 | 0.00 | 0.00 | 0.00 | 95 | 1021.3 |
| 20260906131047 | 18 | 82 | 1.6 | 6.4 | 0.00 | 0.00 | 0.00 | 95 | 1021.2 |
| 20260906130039 | 18 | 16 | 1.6 | 6.4 | 0.00 | 0.00 | 0.00 | 95 | 1021.2 |
| 20260906125539 | 18 | 11 | 4.8 | 9.7 | 0.00 | 0.00 | 0.00 | 95 | 1021.3 |
| 20260906125037 | 18 | 1 | 4.8 | 9.7 | 0.00 | 0.00 | 0.00 | 95 | 1021.1 |
| 20260906124036 | 18 | 353 | 1.6 | 6.4 | 0.00 | 0.00 | 0.00 | 95 | 1021.1 |
| 20260906123035 | 17 | 353 | 1.6 | 6.4 | 0.00 | 0.00 | 0.00 | 95 | 1021.0 |
| 20260906122532 | 17 | 349 | 1.6 | 6.4 | 0.00 | 0.00 | 0.00 | 95 | 1020.8 |
| 20260906122034 | 17 | 16 | 1.6 | 6.4 | 0.00 | 0.00 | 0.00 | 95 | 1020.6 |
| 20260906121029 | 17 | 16 | 0.0 | 4.8 | 0.00 | 0.00 | 0.00 | 95 | 1020.5 |
| 20260906120534 | 17 | 16 | 0.0 | 4.8 | 0.00 | 0.00 | 0.00 | 95 | 1020.4 |
| 20260906115528 | 17 | 16 | 0.0 | 4.8 | 0.00 | 0.00 | 0.00 | 95 | 1020.3 |
| 20260906115025 | 17 | 16 | 0.0 | 4.8 | 0.00 | 0.00 | 0.00 | 94 | 1020.3 |
| 20260906114523 | 17 | 6 | 0.0 | 4.8 | 0.00 | 0.00 | 0.00 | 94 | 1020.3 |
| 20260906114023 | 17 | 6 | 0.0 | 1.6 | 0.00 | 0.00 | 0.00 | 94 | 1020.4 |
| 20260906113523 | 17 | 6 | 0.0 | 1.6 | 0.00 | 0.00 | 0.00 | 94 | 1020.3 |
| 20260906113024 | 17 | 6 | 0.0 | 4.8 | 0.00 | 0.00 | 0.00 | 94 | 1020.2 |
| 20260906112023 | 17 | 6 | 0.0 | 4.8 | 0.00 | 0.00 | 0.00 | 94 | 1019.9 |
| 20260906111519 | 17 | 6 | 0.0 | 4.8 | 0.00 | 0.00 | 0.00 | 94 | 1019.7 |
| 20260906111021 | 17 | 6 | 0.0 | 4.8 | 0.00 | 0.00 | 0.00 | 94 | 1019.7 |
| 20260906110519 | 17 | 6 | 1.6 | 4.8 | 0.00 | 0.00 | 0.00 | 94 | 1019.6 |
| 20260906110020 | 17 | 6 | 1.6 | 9.7 | 0.00 | 0.00 | 0.00 | 94 | 1019.7 |
| 20260906105519 | 17 | 6 | 1.6 | 9.7 | 0.00 | 0.00 | 0.00 | 94 | 1019.8 |
| 20260906105020 | 17 | 32 | 1.6 | 6.4 | 0.00 | 0.00 | 0.00 | 94 | 1019.8 |
| 20260906104519 | 17 | 0 | 1.6 | 6.4 | 0.00 | 0.00 | 0.00 | 94 | 1019.8 |
| 20260906104023 | 17 | 1 | 1.6 | 6.4 | 0.00 | 0.00 | 0.00 | 94 | 1019.9 |
| 20260906103517 | 17 | 357 | 4.8 | 11.3 | 0.00 | 0.00 | 0.00 | 94 | 1019.9 |
| 20260906103017 | 17 | 357 | 4.8 | 11.3 | 0.00 | 0.00 | 0.00 | 94 | 1019.9 |
| 20260906102517 | 17 | 6 | 1.6 | 6.4 | 0.00 | 0.00 | 0.00 | 94 | 1019.8 |
| 20260906102018 | 17 | 11 | 1.6 | 6.4 | 0.00 | 0.00 | 0.00 | 94 | 1019.8 |
| 20260906100515 | 17 | 6 | 4.8 | 9.7 | 0.00 | 0.00 | 0.00 | 93 | 1019.7 |
| 20260906100015 | 18 | 358 | 4.8 | 9.7 | 0.00 | 0.00 | 0.00 | 93 | 1019.7 |
| 20260906095515 | 18 | 57 | 1.6 | 9.7 | 0.00 | 0.00 | 0.00 | 93 | 1019.6 |
| 20260906095015 | 18 | 359 | 1.6 | 4.8 | 0.00 | 0.00 | 0.00 | 93 | 1019.6 |
| 20260906094015 | 18 | 352 | 1.6 | 9.7 | 0.00 | 0.00 | 0.00 | 93 | 1019.3 |
| 20260906093515 | 18 | 6 | 1.6 | 4.8 | 0.00 | 0.00 | 0.00 | 93 | 1019.3 |
| 20260906093014 | 18 | 357 | 1.6 | 6.4 | 0.00 | 0.00 | 0.00 | 93 | 1019.4 |
| 20260906092517 | 18 | 359 | 1.6 | 9.7 | 0.00 | 0.00 | 0.00 | 93 | 1019.3 |
| 20260906092015 | 18 | 358 | 1.6 | 9.7 | 0.00 | 0.00 | 0.00 | 93 | 1019.3 |
| 20260906091016 | 18 | 356 | 1.6 | 6.4 | 0.00 | 0.00 | 0.00 | 92 | 1019.2 |
| 20260906090521 | 18 | 355 | 1.6 | 6.4 | 0.00 | 0.00 | 0.00 | 92 | 1019.2 |
| 20260906090018 | 18 | 352 | 0.0 | 4.8 | 0.00 | 0.00 | 0.00 | 92 | 1019.2 |
| 20260906085516 | 18 | 352 | 0.0 | 1.6 | 0.00 | 0.00 | 0.00 | 92 | 1019.2 |
| 20260906084515 | 19 | 352 | 1.6 | 4.8 | 0.00 | 0.00 | 0.00 | 92 | 1019.2 |
| 20260906084015 | 19 | 47 | 1.6 | 4.8 | 0.00 | 0.00 | 0.00 | 92 | 1019.2 |
| 20260906083515 | 19 | 76 | 1.6 | 4.8 | 0.00 | 0.00 | 0.00 | 92 | 1019.1 |
| 20260906083015 | 19 | 78 | 0.0 | 1.6 | 0.00 | 0.00 | 0.00 | 92 | 1019.2 |
| 20260906082515 | 19 | 78 | 0.0 | 1.6 | 0.00 | 0.00 | 0.00 | 92 | 1019.2 |
| 20260906082016 | 19 | 78 | 0.0 | 1.6 | 0.00 | 0.00 | 0.00 | 92 | 1019.2 |
| 20260906081016 | 19 | 78 | 1.6 | 6.4 | 0.00 | 0.00 | 0.00 | 92 | 1019.2 |
| 20260906080510 | 19 | 72 | 1.6 | 4.8 | 0.00 | 0.00 | 0.00 | 92 | 1019.3 |
| 20260906080007 | 19 | 72 | 1.6 | 6.4 | 0.00 | 0.00 | 0.00 | 92 | 1019.3 |
| 20260906075505 | 20 | 74 | 1.6 | 6.4 | 0.00 | 0.00 | 0.00 | 92 | 1019.2 |
| 20260906075004 | 20 | 76 | 1.6 | 6.4 | 0.00 | 0.00 | 0.00 | 92 | 1019.3 |
| 20260906074004 | 20 | 79 | 4.8 | 9.7 | 0.00 | 0.00 | 0.00 | 92 | 1019.5 |
| 20260906073002 | 20 | 80 | 1.6 | 9.7 | 0.00 | 0.00 | 0.00 | 92 | 1019.5 |
| 20260906072506 | 20 | 89 | 4.8 | 11.3 | 0.00 | 0.00 | 0.00 | 92 | 1019.4 |
| 20260906072003 | 20 | 63 | 6.4 | 11.3 | 0.00 | 0.00 | 0.00 | 92 | 1019.3 |
| 20260906071504 | 20 | 46 | 6.4 | 11.3 | 0.00 | 0.00 | 0.00 | 92 | 1019.5 |
| 20260906071005 | 20 | 74 | 4.8 | 11.3 | 0.00 | 0.00 | 0.00 | 92 | 1019.6 |
| 20260906070005 | 20 | 116 | 6.4 | 16.1 | 0.00 | 0.00 | 0.00 | 92 | 1019.6 |
| 20260906065506 | 20 | 86 | 6.4 | 16.1 | 0.00 | 0.00 | 0.00 | 92 | 1019.7 |
| 20260906065004 | 20 | 85 | 6.4 | 14.5 | 0.00 | 0.00 | 0.00 | 92 | 1019.6 |
| 20260906064004 | 20 | 53 | 4.8 | 11.3 | 0.00 | 0.00 | 0.00 | 92 | 1019.7 |
| 20260906063459 | 20 | 54 | 6.4 | 14.5 | 0.00 | 0.00 | 0.00 | 92 | 1019.7 |
| 20260906062449 | 20 | 85 | 4.8 | 14.5 | 0.00 | 0.00 | 0.00 | 92 | 1019.7 |
| 20260906061448 | 20 | 92 | 8.0 | 24.1 | 0.00 | 0.00 | 0.00 | 92 | 1019.9 |
| 20260906060443 | 19 | 85 | 4.8 | 20.9 | 0.00 | 0.00 | 0.00 | 92 | 1019.8 |
| 20260906055940 | 19 | 118 | 1.6 | 9.7 | 0.00 | 0.00 | 0.00 | 91 | 1019.7 |
| 20260906055444 | 19 | 58 | 1.6 | 4.8 | 0.00 | 0.00 | 0.00 | 91 | 1019.6 |
| 20260906054940 | 20 | 58 | 1.6 | 6.4 | 0.00 | 0.00 | 0.00 | 91 | 1019.6 |
| 20260906054441 | 20 | 58 | 1.6 | 6.4 | 0.00 | 0.00 | 0.00 | 91 | 1019.5 |
| 20260906053940 | 20 | 57 | 1.6 | 6.4 | 0.00 | 0.00 | 0.00 | 91 | 1019.5 |
| 20260906053438 | 20 | 59 | 1.6 | 6.4 | 0.00 | 0.00 | 0.00 | 90 | 1019.3 |
| 20260906052939 | 20 | 63 | 1.6 | 6.4 | 0.00 | 0.00 | 0.00 | 90 | 1019.2 |
| 20260906052438 | 20 | 62 | 1.6 | 6.4 | 0.00 | 0.00 | 0.00 | 90 | 1019.2 |
| 20260906051940 | 20 | 16 | 1.6 | 6.4 | 0.00 | 0.00 | 0.00 | 90 | 1019.2 |
| 20260906051447 | 20 | 317 | 0.0 | 4.8 | 0.00 | 0.00 | 0.00 | 90 | 1019.3 |
| 20260906050942 | 20 | 317 | 0.0 | 1.6 | 0.00 | 0.00 | 0.00 | 89 | 1019.2 |
| 20260906050441 | 20 | 317 | 0.0 | 1.6 | 0.00 | 0.00 | 0.00 | 89 | 1019.2 |
| 20260906045939 | 20 | 317 | 0.0 | 4.8 | 0.00 | 0.00 | 0.00 | 89 | 1019.2 |
| 20260906044928 | 20 | 317 | 1.6 | 4.8 | 0.00 | 0.00 | 0.00 | 89 | 1019.0 |
| 20260906044418 | 20 | 317 | 0.0 | 4.8 | 0.00 | 0.00 | 0.00 | 89 | 1019.0 |
| 20260906043911 | 20 | 317 | 0.0 | 4.8 | 0.00 | 0.00 | 0.00 | 89 | 1019.0 |
| 20260906042401 | 20 | 317 | 1.6 | 6.4 | 0.00 | 0.00 | 0.00 | 89 | 1019.0 |
| 20260906041901 | 20 | 65 | 4.8 | 9.7 | 0.00 | 0.00 | 0.00 | 89 | 1018.8 |
| 20260906040902 | 21 | 20 | 4.8 | 14.5 | 0.00 | 0.00 | 0.00 | 89 | 1018.7 |
| 20260906040406 | 21 | 31 | 4.8 | 14.5 | 0.00 | 0.00 | 0.00 | 89 | 1018.7 |
| 20260906035906 | 21 | 72 | 6.4 | 14.5 | 0.00 | 0.00 | 0.00 | 88 | 1018.7 |
| 20260906035410 | 21 | 81 | 4.8 | 14.5 | 0.00 | 0.00 | 0.00 | 88 | 1018.6 |
| 20260906034906 | 21 | 57 | 4.8 | 11.3 | 0.00 | 0.00 | 0.00 | 88 | 1018.6 |
| 20260906034401 | 21 | 37 | 4.8 | 9.7 | 0.00 | 0.00 | 0.00 | 88 | 1018.5 |
| 20260906033902 | 21 | 64 | 4.8 | 14.5 | 0.00 | 0.00 | 0.00 | 87 | 1018.6 |
| 20260906033401 | 21 | 89 | 6.4 | 19.3 | 0.00 | 0.00 | 0.00 | 88 | 1018.5 |
| 20260906032903 | 21 | 56 | 6.4 | 19.3 | 0.00 | 0.00 | 0.00 | 87 | 1018.4 |
| 20260906032404 | 21 | 76 | 6.4 | 20.9 | 0.00 | 0.00 | 0.00 | 87 | 1018.4 |
| 20260906031901 | 21 | 87 | 8.0 | 20.9 | 0.00 | 0.00 | 0.00 | 87 | 1018.4 |
| 20260906031403 | 21 | 120 | 8.0 | 16.1 | 0.00 | 0.00 | 0.00 | 87 | 1018.4 |
| 20260906030902 | 21 | 99 | 8.0 | 24.1 | 0.00 | 0.00 | 0.00 | 87 | 1018.4 |
| 20260906030358 | 21 | 86 | 8.0 | 24.1 | 0.00 | 0.00 | 0.00 | 86 | 1018.5 |
| 20260906025855 | 21 | 123 | 8.0 | 24.1 | 0.00 | 0.00 | 0.00 | 87 | 1018.3 |
| 20260906025355 | 21 | 73 | 9.7 | 25.7 | 0.00 | 0.00 | 0.00 | 86 | 1018.3 |
| 20260906024854 | 21 | 70 | 9.7 | 25.7 | 0.00 | 0.00 | 0.00 | 86 | 1018.3 |
| 20260906024354 | 21 | 89 | 12.9 | 25.7 | 0.00 | 0.00 | 0.00 | 86 | 1018.2 |
| 20260906023855 | 21 | 66 | 12.9 | 33.8 | 0.00 | 0.00 | 0.00 | 86 | 1018.1 |
| 20260906023354 | 21 | 87 | 9.7 | 33.8 | 0.00 | 0.00 | 0.00 | 85 | 1018.1 |
| 20260906022857 | 22 | 115 | 12.9 | 30.6 | 0.00 | 0.00 | 0.00 | 85 | 1017.8 |
| 20260906022356 | 22 | 80 | 14.5 | 30.6 | 0.00 | 0.00 | 0.00 | 85 | 1017.7 |
| 20260906021857 | 22 | 112 | 14.5 | 29.0 | 0.00 | 0.00 | 0.00 | 84 | 1017.6 |
| 20260906021359 | 22 | 91 | 12.9 | 29.0 | 0.00 | 0.00 | 0.00 | 84 | 1017.5 |
| 20260906020855 | 22 | 86 | 9.7 | 24.1 | 0.00 | 0.00 | 0.00 | 84 | 1017.5 |
| 20260906020357 | 22 | 88 | 8.0 | 24.1 | 0.00 | 0.00 | 0.00 | 84 | 1017.5 |
| 20260906015855 | 22 | 84 | 8.0 | 24.1 | 0.00 | 0.00 | 0.00 | 84 | 1017.5 |
| 20260906015353 | 22 | 110 | 8.0 | 24.1 | 0.00 | 0.00 | 0.00 | 84 | 1017.4 |
| 20260906014852 | 22 | 103 | 8.0 | 24.1 | 0.00 | 0.00 | 0.00 | 84 | 1017.3 |
| 20260906014347 | 23 | 102 | 8.0 | 16.1 | 0.00 | 0.00 | 0.00 | 84 | 1017.2 |
| 20260906013841 | 23 | 70 | 8.0 | 29.0 | 0.00 | 0.00 | 0.00 | 84 | 1017.3 |
| 20260906013332 | 23 | 122 | 9.7 | 29.0 | 0.00 | 0.00 | 0.00 | 84 | 1017.1 |
| 20260906012833 | 23 | 116 | 8.0 | 20.9 | 0.00 | 0.00 | 0.00 | 84 | 1017.3 |
| 20260906010830 | 23 | 89 | 9.7 | 30.6 | 0.00 | 0.00 | 0.00 | 83 | 1017.4 |
| 20260906010331 | 23 | 88 | 9.7 | 29.0 | 0.00 | 0.00 | 0.00 | 84 | 1017.3 |
| 20260906005833 | 23 | 98 | 8.0 | 24.1 | 0.00 | 0.00 | 0.00 | 84 | 1017.2 |
| 20260906005331 | 24 | 86 | 8.0 | 19.3 | 0.00 | 0.00 | 0.00 | 84 | 1017.2 |
| 20260906004833 | 24 | 91 | 6.4 | 19.3 | 0.00 | 0.00 | 0.00 | 83 | 1017.2 |
| 20260906003831 | 24 | 74 | 4.8 | 11.3 | 0.00 | 0.00 | 0.00 | 82 | 1017.2 |
| 20260906003328 | 24 | 47 | 1.6 | 9.7 | 0.00 | 0.00 | 0.00 | 81 | 1017.2 |
| 20260906002829 | 25 | 20 | 1.6 | 9.7 | 0.00 | 0.00 | 0.00 | 80 | 1017.1 |
| 20260906002331 | 25 | 6 | 1.6 | 9.7 | 0.00 | 0.00 | 0.00 | 80 | 1017.1 |
| 20260906001829 | 25 | 351 | 1.6 | 11.3 | 0.00 | 0.00 | 0.00 | 79 | 1017.1 |
| 20260906001328 | 25 | 351 | 1.6 | 11.3 | 0.00 | 0.00 | 0.00 | 79 | 1017.1 |
| 20260906000831 | 25 | 342 | 1.6 | 9.7 | 0.00 | 0.00 | 0.00 | 78 | 1017.1 |
| 20260906000330 | 25 | 330 | 1.6 | 9.7 | 0.00 | 0.00 | 0.00 | 78 | 1017.1 |
| 20260905235830 | 25 | 6 | 1.6 | 9.7 | 0.00 | 0.00 | 0.00 | 77 | 1017.1 |
| 20260905235329 | 25 | 11 | 4.8 | 9.7 | 0.00 | 0.00 | 0.00 | 77 | 1017.2 |
| 20260905234830 | 26 | 357 | 4.8 | 14.5 | 0.00 | 0.00 | 0.00 | 76 | 1017.2 |
| 20260905234330 | 26 | 338 | 4.8 | 14.5 | 0.00 | 0.00 | 0.00 | 75 | 1017.1 |
| 20260905233331 | 26 | 355 | 4.8 | 11.3 | 0.00 | 0.00 | 0.00 | 75 | 1017.1 |
| 20260905232831 | 26 | 26 | 4.8 | 14.5 | 0.00 | 0.00 | 0.00 | 74 | 1017.1 |
| 20260905231830 | 26 | 16 | 4.8 | 11.3 | 0.00 | 0.00 | 0.00 | 74 | 1017.0 |
| 20260905231328 | 26 | 355 | 4.8 | 19.3 | 0.00 | 0.00 | 0.00 | 75 | 1017.0 |
| 20260905230828 | 26 | 347 | 6.4 | 19.3 | 0.00 | 0.00 | 0.00 | 74 | 1017.0 |
| 20260905230329 | 26 | 6 | 6.4 | 20.9 | 0.00 | 0.00 | 0.00 | 74 | 1017.0 |
| 20260905225830 | 26 | 349 | 6.4 | 20.9 | 0.00 | 0.00 | 0.00 | 74 | 1016.9 |
| 20260905225330 | 26 | 32 | 6.4 | 19.3 | 0.00 | 0.00 | 0.00 | 73 | 1016.8 |
| 20260905224829 | 27 | 36 | 6.4 | 19.3 | 0.00 | 0.00 | 0.00 | 73 | 1016.8 |
| 20260905224329 | 27 | 51 | 6.4 | 19.3 | 0.00 | 0.00 | 0.00 | 73 | 1016.8 |
| 20260905223829 | 27 | 6 | 6.4 | 20.9 | 0.00 | 0.00 | 0.00 | 73 | 1016.6 |
| 20260905223331 | 27 | 45 | 6.4 | 20.9 | 0.00 | 0.00 | 0.00 | 73 | 1016.7 |
| 20260905222831 | 27 | 28 | 8.0 | 20.9 | 0.00 | 0.00 | 0.00 | 72 | 1016.7 |
| 20260905222329 | 27 | 6 | 6.4 | 20.9 | 0.00 | 0.00 | 0.00 | 71 | 1016.7 |
| 20260905221829 | 27 | 353 | 6.4 | 14.5 | 0.00 | 0.00 | 0.00 | 72 | 1016.7 |
| 20260905220334 | 26 | 357 | 6.4 | 19.3 | 0.00 | 0.00 | 0.00 | 74 | 1016.6 |
| 20260905215831 | 26 | 6 | 6.4 | 14.5 | 0.00 | 0.00 | 0.00 | 74 | 1016.7 |
| 20260905214830 | 27 | 6 | 8.0 | 19.3 | 0.00 | 0.00 | 0.00 | 75 | 1016.6 |
| 20260905214330 | 27 | 69 | 6.4 | 16.1 | 0.00 | 0.00 | 0.00 | 75 | 1016.5 |
| 20260905213831 | 27 | 16 | 6.4 | 24.1 | 0.00 | 0.00 | 0.00 | 74 | 1016.6 |
| 20260905213330 | 27 | 42 | 6.4 | 24.1 | 0.00 | 0.00 | 0.00 | 74 | 1016.6 |
| 20260905212830 | 26 | 83 | 6.4 | 14.5 | 0.00 | 0.00 | 0.00 | 75 | 1016.5 |
| 20260905212329 | 26 | 73 | 4.8 | 14.5 | 0.00 | 0.00 | 0.00 | 76 | 1016.6 |
| 20260905211831 | 26 | 51 | 4.8 | 9.7 | 0.00 | 0.00 | 0.00 | 77 | 1016.6 |
| 20260905211330 | 26 | 35 | 6.4 | 16.1 | 0.00 | 0.00 | 0.00 | 79 | 1016.6 |
| 20260905210829 | 26 | 355 | 6.4 | 20.9 | 0.00 | 0.00 | 0.00 | 78 | 1016.6 |
| 20260905210329 | 26 | 69 | 6.4 | 20.9 | 0.00 | 0.00 | 0.00 | 78 | 1016.7 |
| 20260905205329 | 26 | 24 | 6.4 | 19.3 | 0.00 | 0.00 | 0.00 | 78 | 1016.6 |
| 20260905204829 | 26 | 68 | 6.4 | 19.3 | 0.00 | 0.00 | 0.00 | 78 | 1016.8 |
| 20260905204334 | 26 | 78 | 6.4 | 16.1 | 0.00 | 0.00 | 0.00 | 78 | 1016.7 |
| 20260905203829 | 26 | 57 | 4.8 | 14.5 | 0.00 | 0.00 | 0.00 | 79 | 1017.0 |
| 20260905202828 | 25 | 74 | 6.4 | 14.5 | 0.00 | 0.00 | 0.00 | 81 | 1017.0 |
| 20260905202329 | 25 | 352 | 6.4 | 11.3 | 0.00 | 0.00 | 0.00 | 81 | 1017.0 |
| 20260905201829 | 25 | 57 | 4.8 | 14.5 | 0.00 | 0.00 | 0.00 | 81 | 1017.1 |
| 20260905200833 | 25 | 24 | 6.4 | 19.3 | 0.00 | 0.00 | 0.00 | 81 | 1017.2 |
| 20260905200327 | 25 | 34 | 4.8 | 19.3 | 0.00 | 0.00 | 0.00 | 81 | 1017.1 |
| 20260905195823 | 25 | 11 | 4.8 | 20.9 | 0.00 | 0.00 | 0.00 | 81 | 1017.2 |
| 20260905194826 | 25 | 16 | 4.8 | 19.3 | 0.00 | 0.00 | 0.00 | 81 | 1017.1 |
| 20260905193821 | 26 | 78 | 6.4 | 19.3 | 0.00 | 0.00 | 0.00 | 81 | 1017.1 |
| 20260905193320 | 26 | 358 | 4.8 | 19.3 | 0.00 | 0.00 | 0.00 | 82 | 1017.2 |
| 20260905192822 | 26 | 51 | 4.8 | 19.3 | 0.00 | 0.00 | 0.00 | 81 | 1017.2 |
| 20260905192320 | 26 | 51 | 6.4 | 19.3 | 0.00 | 0.00 | 0.00 | 81 | 1017.2 |
| 20260905191818 | 26 | 73 | 6.4 | 16.1 | 0.00 | 0.00 | 0.00 | 82 | 1017.0 |
| 20260905191317 | 25 | 6 | 6.4 | 20.9 | 0.00 | 0.00 | 0.00 | 82 | 1017.0 |
| 20260905190314 | 26 | 72 | 4.8 | 11.3 | 0.00 | 0.00 | 0.00 | 82 | 1017.0 |
| 20260905185817 | 26 | 70 | 6.4 | 14.5 | 0.00 | 0.00 | 0.00 | 81 | 1017.1 |
| 20260905185315 | 26 | 16 | 6.4 | 20.9 | 0.00 | 0.00 | 0.00 | 82 | 1016.9 |
| 20260905183814 | 26 | 350 | 6.4 | 24.1 | 0.00 | 0.00 | 0.00 | 82 | 1017.1 |
| 20260905183317 | 25 | 33 | 6.4 | 24.1 | 0.00 | 0.00 | 0.00 | 82 | 1017.2 |
| 20260905182810 | 26 | 6 | 6.4 | 24.1 | 0.00 | 0.00 | 0.00 | 82 | 1017.2 |
| 20260905182311 | 26 | 349 | 6.4 | 24.1 | 0.00 | 0.00 | 0.00 | 81 | 1017.2 |
| 20260905181814 | 26 | 37 | 6.4 | 20.9 | 0.00 | 0.00 | 0.00 | 82 | 1017.2 |
| 20260905181309 | 26 | 86 | 6.4 | 20.9 | 0.00 | 0.00 | 0.00 | 81 | 1017.2 |
| 20260905180810 | 26 | 80 | 6.4 | 20.9 | 0.00 | 0.00 | 0.00 | 81 | 1017.3 |
| 20260905180310 | 26 | 347 | 6.4 | 14.5 | 0.00 | 0.00 | 0.00 | 82 | 1017.2 |
| 20260905175804 | 26 | 65 | 6.4 | 19.3 | 0.00 | 0.00 | 0.00 | 82 | 1017.2 |
| 20260905175306 | 26 | 353 | 8.0 | 24.1 | 0.00 | 0.00 | 0.00 | 81 | 1017.3 |
| 20260905174304 | 26 | 44 | 6.4 | 16.1 | 0.00 | 0.00 | 0.00 | 81 | 1017.3 |
| 20260905173803 | 26 | 90 | 6.4 | 16.1 | 0.00 | 0.00 | 0.00 | 81 | 1017.1 |
| 20260905173304 | 26 | 71 | 6.4 | 19.3 | 0.00 | 0.00 | 0.00 | 80 | 1017.1 |
| 20260905172807 | 26 | 349 | 6.4 | 19.3 | 0.00 | 0.00 | 0.00 | 80 | 1017.2 |
| 20260905172312 | 27 | 351 | 6.4 | 20.9 | 0.00 | 0.00 | 0.00 | 80 | 1017.1 |
| 20260905171807 | 27 | 70 | 8.0 | 20.9 | 0.00 | 0.00 | 0.00 | 80 | 1017.1 |
| 20260905170802 | 27 | 6 | 8.0 | 30.6 | 0.00 | 0.00 | 0.00 | 80 | 1017.0 |
| 20260905170303 | 27 | 67 | 8.0 | 30.6 | 0.00 | 0.00 | 0.00 | 80 | 1017.2 |
| 20260905165300 | 27 | 86 | 6.4 | 19.3 | 0.00 | 0.00 | 0.00 | 80 | 1017.4 |
| 20260905164751 | 26 | 26 | 6.4 | 16.1 | 0.00 | 0.00 | 0.00 | 81 | 1017.3 |
| 20260905164242 | 26 | 2 | 6.4 | 11.3 | 0.00 | 0.00 | 0.00 | 81 | 1017.2 |
| 20260905163739 | 26 | 338 | 6.4 | 11.3 | 0.00 | 0.00 | 0.00 | 82 | 1017.1 |
| 20260905163232 | 26 | 349 | 4.8 | 16.1 | 0.00 | 0.00 | 0.00 | 82 | 1017.2 |
| 20260905162732 | 27 | 316 | 6.4 | 16.1 | 0.00 | 0.00 | 0.00 | 81 | 1017.2 |
| 20260905162232 | 27 | 6 | 6.4 | 19.3 | 0.00 | 0.00 | 0.00 | 82 | 1017.3 |
| 20260905161734 | 26 | 85 | 6.4 | 19.3 | 0.00 | 0.00 | 0.00 | 82 | 1017.2 |
| 20260905161234 | 26 | 354 | 4.8 | 14.5 | 0.00 | 0.00 | 0.00 | 81 | 1017.2 |
| 20260905160732 | 26 | 347 | 4.8 | 14.5 | 0.00 | 0.00 | 0.00 | 83 | 1017.3 |
| 20260905160232 | 26 | 340 | 4.8 | 14.5 | 0.00 | 0.00 | 0.00 | 82 | 1017.3 |
| 20260905155733 | 26 | 6 | 4.8 | 14.5 | 0.00 | 0.00 | 0.00 | 81 | 1017.2 |
| 20260905155235 | 26 | 70 | 4.8 | 14.5 | 0.00 | 0.00 | 0.00 | 84 | 1017.3 |
| 20260905154735 | 26 | 51 | 6.4 | 14.5 | 0.00 | 0.00 | 0.00 | 83 | 1017.2 |
| 20260905154242 | 26 | 87 | 6.4 | 19.3 | 0.00 | 0.00 | 0.00 | 83 | 1017.3 |
| 20260905153733 | 26 | 6 | 6.4 | 19.3 | 0.00 | 0.00 | 0.00 | 83 | 1017.3 |
| 20260905153233 | 25 | 358 | 6.4 | 16.1 | 0.00 | 0.00 | 0.00 | 84 | 1017.2 |
| 20260905152731 | 26 | 78 | 6.4 | 16.1 | 0.00 | 0.00 | 0.00 | 84 | 1017.2 |
| 20260905152231 | 25 | 334 | 4.8 | 11.3 | 0.00 | 0.00 | 0.00 | 84 | 1017.2 |